Nearby METAR Reports

 

KLOT - Romeoville/Chi, Illinois, USA
Distance from station: N 3mi, 5km
Updated: Thu, 19-Sep-2019 3:55pm CDT
Clear
Clear
 Wind from calm
Wind: Calm
Temperature: 81°F , 27°C
Heat Index: 82°F , 28°C
Dew Point: 63°F , 17°C
Humidity: 54%
Barometer: 30.07 inHg , 1018.3 hPa
Clouds: Clear
Visibility: 10 miles , 16 km
2019/09/19 20:55 KLOT 192055Z AUTO 00000KT 10SM CLR 27/17 A3007 RMK AO2 T02660167
KJOT - Joliet, Illinois, USA
Distance from station: WSW 5mi, 7km
Updated: Thu, 19-Sep-2019 3:55pm CDT
Clear
Clear
 Wind from calm
Wind: Calm
Temperature: 84°F , 29°C
Heat Index: 85°F , 29°C
Dew Point: 63°F , 17°C
Humidity: 48%
Barometer: 30.06 inHg , 1017.9 hPa
Clouds: Clear
Visibility: 10 miles , 16 km
2019/09/19 20:55 KJOT 192055Z AUTO 00000KT 10SM CLR 29/17 A3006 RMK AO2 T02860167
 
KC09 - Morris-Washburn, Illinois, USA
Distance from station: WSW 18mi, 29km
Updated: Thu, 19-Sep-2019 3:55pm CDT
Mostly cloudy
Mostly cloudy
 Wind from calm
Wind: Calm
Temperature: 81°F , 27°C
Heat Index: 83°F , 28°C
Dew Point: 64°F , 18°C
Humidity: 58%
Barometer: 30.05 inHg , 1017.6 hPa
Clouds: Mostly cloudy
Visibility: 10 miles , 16 km
Cloud details: Mostly cloudy 6000 ft
2019/09/19 20:55 KC09 192055Z AUTO 00000KT 10SM BKN060 27/18 A3005 RMK AO2 T02740176
KARR - Chicago/Aurora, Illinois, USA
Distance from station: NW 24mi, 39km
Updated: Thu, 19-Sep-2019 3:52pm CDT
Clear
Clear
 Wind from NNW
Wind: NNW 3 mph , 6 km/h
Temperature: 79°F , 26°C
Dew Point: 64°F , 18°C
Humidity: 61%
Barometer: 30.06 inHg , 1017.9 hPa
Clouds: Clear
Visibility: 10 miles , 16 km
2019/09/19 20:52 KARR 192052Z 34003KT 10SM CLR 26/18 A3006 RMK AO2 SLP176 T02560183 58013
 
KMDW - Chicago, Illinois, USA
Distance from station: NE 25mi, 39km
Updated: Thu, 19-Sep-2019 3:53pm CDT
Mostly cloudy
Mostly cloudy
 Wind from ENE
Wind: ENE 8 mph , 13 km/h
Temperature: 82°F , 28°C
Heat Index: 82°F , 28°C
Dew Point: 61°F , 16°C
Humidity: 48%
Barometer: 30.06 inHg , 1017.9 hPa
Clouds: Mostly cloudy
Visibility: 10 miles , 16 km
Cloud details: Few Clouds 5500 ft
Few Clouds 15000 ft
Mostly cloudy 25000 ft
2019/09/19 20:53 KMDW 192053Z 06007KT 10SM FEW055 FEW150 BKN250 28/16 A3006 RMK AO2 SLP169 T02780156 56008
KDPA - Chicago/Dupage, Illinois, USA
Distance from station: NNW 26mi, 42km
Updated: Thu, 19-Sep-2019 3:52pm CDT
Few Clouds
Few Clouds
 Wind from calm
Wind: Calm
Temperature: 82°F , 28°C
Heat Index: 83°F , 28°C
Dew Point: 63°F , 17°C
Humidity: 51%
Barometer: 30.06 inHg , 1017.9 hPa
Clouds: Few Clouds
Visibility: 10 miles , 16 km
Cloud details: Few Clouds 6500 ft
2019/09/19 20:52 KDPA 192052Z 00000KT 10SM FEW065 28/17 A3006 RMK AO2 SLP175 T02830167 56011
 
KIGQ - Chicago/Lansing, Illinois, USA
Distance from station: E 30mi, 48km
Updated: Thu, 19-Sep-2019 3:55pm CDT
Clear
Clear
 Wind from calm
Wind: Calm
Temperature: 82°F , 28°C
Heat Index: 82°F , 28°C
Dew Point: 61°F , 16°C
Humidity: 48%
Barometer: 30.06 inHg , 1017.9 hPa
Clouds: Clear
Visibility: 10 miles , 16 km
2019/09/19 20:55 KIGQ 192055Z AUTO 00000KT 10SM CLR 28/16 A3006 RMK AO2 T02800159
KORD - Chicago O'hare, Illinois, USA
Distance from station: NNE 31mi, 50km
Updated: Thu, 19-Sep-2019 3:51pm CDT
Mostly cloudy
Mostly cloudy
 Wind from NE
Wind: NE 6 mph , 9 km/h
Temperature: 81°F , 27°C
Heat Index: 82°F , 28°C
Dew Point: 61°F , 16°C
Humidity: 51%
Barometer: 30.06 inHg , 1017.9 hPa
Clouds: Mostly cloudy
Visibility: 10 miles , 16 km
Cloud details: Few Clouds 7500 ft
Partly cloudy 18000 ft
Mostly cloudy 25000 ft
2019/09/19 20:51 KORD 192051Z 05005KT 10SM FEW075 SCT180 BKN250 27/16 A3006 RMK AO2 SLP174 T02720161 57009
 
KGYY - Gary Regional, Indiana, USA
Distance from station: E 36mi, 58km
Updated: Thu, 19-Sep-2019 3:45pm CDT
Mostly cloudy
Mostly cloudy
 Wind from ENE
Wind: ENE 8 mph , 13 km/h
Temperature: 77°F , 25°C
Dew Point: 61°F , 16°C
Humidity: 57%
Barometer: 30.07 inHg , 1018.3 hPa
Clouds: Mostly cloudy
Visibility: 10 miles , 16 km
Cloud details: Mostly cloudy 20000 ft
2019/09/19 20:45 KGYY 192045Z 06007KT 10SM BKN200 25/16 A3007
KIKK - Kankakee, Illinois, USA
Distance from station: SSE 36mi, 58km
Updated: Thu, 19-Sep-2019 3:55pm CDT
Clear
Clear
 Wind from calm
Wind: Calm
Temperature: 84°F , 29°C
Heat Index: 84°F , 29°C
Dew Point: 59°F , 15°C
Humidity: 43%
Barometer: 30.06 inHg , 1017.9 hPa
Clouds: Clear
Visibility: 10 miles , 16 km
2019/09/19 20:55 KIKK 192055Z AUTO 00000KT 10SM CLR 29/15 A3006 RMK AO2 T02890152
 
KDKB - De Kalb, Illinois, USA
Distance from station: NW 40mi, 65km
Updated: Thu, 19-Sep-2019 3:55pm CDT
Light rain, Overcast
Light rain, Overcast
 Wind from calm
Wind: Calm
Temperature: 73°F , 23°C
Dew Point: 70°F , 21°C
Humidity: 89%
Barometer: 30.07 inHg , 1018.3 hPa
Summary: Light rain
Clouds: Overcast
Visibility: 7 miles , 11 km
Cloud details: Partly cloudy 3700 ft
Mostly cloudy 7000 ft
Overcast 9000 ft
2019/09/19 20:55 KDKB 192055Z AUTO 00000KT 7SM -RA SCT037 BKN070 OVC090 23/21 A3007 RMK AO2 P0004 60004 T02250211
KPWK - Palwaukee, Illinois, USA
Distance from station: NNE 41mi, 65km
Updated: Thu, 19-Sep-2019 3:52pm CDT
Clear
Clear
 Wind from varies
Wind: varies 3 mph , 6 km/h
Temperature: 82°F , 28°C
Heat Index: 83°F , 28°C
Dew Point: 63°F , 17°C
Humidity: 51%
Barometer: 30.07 inHg , 1018.3 hPa
Clouds: Clear
Visibility: 10 miles , 16 km
2019/09/19 20:52 KPWK 192052Z VRB03KT 10SM CLR 28/17 A3007 RMK AO2 SLP179 T02830167 56009